sensor_id;sensor_type;location;lat;lon;timestamp;P1;durP1;ratioP1;P2;durP2;ratioP2
27163;SDS011;14685;50.618;7.024;2023-08-24T00:00:37;5.75;;;3.45;;
27163;SDS011;14685;50.618;7.024;2023-08-24T00:03:04;6.70;;;3.10;;
27163;SDS011;14685;50.618;7.024;2023-08-24T00:05:37;7.38;;;2.95;;
27163;SDS011;14685;50.618;7.024;2023-08-24T00:08:06;3.53;;;2.95;;
27163;SDS011;14685;50.618;7.024;2023-08-24T00:10:37;7.80;;;3.40;;
27163;SDS011;14685;50.618;7.024;2023-08-24T00:13:05;7.93;;;2.90;;
27163;SDS011;14685;50.618;7.024;2023-08-24T00:15:34;6.63;;;3.00;;
27163;SDS011;14685;50.618;7.024;2023-08-24T00:18:02;7.32;;;3.30;;
27163;SDS011;14685;50.618;7.024;2023-08-24T00:20:29;6.32;;;3.13;;
27163;SDS011;14685;50.618;7.024;2023-08-24T00:22:57;7.25;;;3.28;;
27163;SDS011;14685;50.618;7.024;2023-08-24T00:25:25;6.82;;;3.22;;
27163;SDS011;14685;50.618;7.024;2023-08-24T00:27:55;7.25;;;3.10;;
27163;SDS011;14685;50.618;7.024;2023-08-24T00:30:23;6.68;;;2.92;;
27163;SDS011;14685;50.618;7.024;2023-08-24T00:32:50;5.90;;;3.20;;
27163;SDS011;14685;50.618;7.024;2023-08-24T00:35:18;3.38;;;2.90;;
27163;SDS011;14685;50.618;7.024;2023-08-24T00:37:45;5.82;;;2.60;;
27163;SDS011;14685;50.618;7.024;2023-08-24T00:40:12;6.00;;;3.33;;
27163;SDS011;14685;50.618;7.024;2023-08-24T00:42:39;4.85;;;3.38;;
27163;SDS011;14685;50.618;7.024;2023-08-24T00:45:07;5.13;;;2.30;;
27163;SDS011;14685;50.618;7.024;2023-08-24T00:47:36;4.43;;;3.17;;
27163;SDS011;14685;50.618;7.024;2023-08-24T00:50:07;5.25;;;3.10;;
27163;SDS011;14685;50.618;7.024;2023-08-24T00:52:36;5.28;;;3.13;;
27163;SDS011;14685;50.618;7.024;2023-08-24T00:55:06;6.07;;;3.03;;
27163;SDS011;14685;50.618;7.024;2023-08-24T00:57:33;7.70;;;3.60;;
27163;SDS011;14685;50.618;7.024;2023-08-24T01:00:04;8.85;;;3.50;;
27163;SDS011;14685;50.618;7.024;2023-08-24T01:02:33;5.57;;;3.08;;
27163;SDS011;14685;50.618;7.024;2023-08-24T01:05:00;4.20;;;2.70;;
27163;SDS011;14685;50.618;7.024;2023-08-24T01:07:27;8.88;;;3.05;;
27163;SDS011;14685;50.618;7.024;2023-08-24T01:09:55;5.78;;;2.70;;
27163;SDS011;14685;50.618;7.024;2023-08-24T01:15:13;6.60;;;2.88;;
27163;SDS011;14685;50.618;7.024;2023-08-24T01:17:42;6.07;;;2.95;;
27163;SDS011;14685;50.618;7.024;2023-08-24T01:20:10;4.05;;;3.13;;
27163;SDS011;14685;50.618;7.024;2023-08-24T01:22:44;7.53;;;3.28;;
27163;SDS011;14685;50.618;7.024;2023-08-24T01:25:17;6.68;;;3.13;;
27163;SDS011;14685;50.618;7.024;2023-08-24T01:27:47;8.68;;;3.35;;
27163;SDS011;14685;50.618;7.024;2023-08-24T01:30:15;4.70;;;3.22;;
27163;SDS011;14685;50.618;7.024;2023-08-24T01:32:43;5.13;;;3.17;;
27163;SDS011;14685;50.618;7.024;2023-08-24T01:35:10;6.20;;;2.65;;
27163;SDS011;14685;50.618;7.024;2023-08-24T01:37:38;5.25;;;3.35;;
27163;SDS011;14685;50.618;7.024;2023-08-24T01:40:06;5.28;;;2.92;;
27163;SDS011;14685;50.618;7.024;2023-08-24T01:42:58;7.57;;;3.33;;
27163;SDS011;14685;50.618;7.024;2023-08-24T01:45:27;8.60;;;3.40;;
27163;SDS011;14685;50.618;7.024;2023-08-24T01:47:56;5.97;;;3.38;;
27163;SDS011;14685;50.618;7.024;2023-08-24T01:50:28;7.05;;;3.63;;
27163;SDS011;14685;50.618;7.024;2023-08-24T01:52:57;9.82;;;3.17;;
27163;SDS011;14685;50.618;7.024;2023-08-24T01:55:24;7.68;;;3.28;;
27163;SDS011;14685;50.618;7.024;2023-08-24T01:57:51;5.95;;;3.28;;
27163;SDS011;14685;50.618;7.024;2023-08-24T02:00:20;8.15;;;3.83;;
27163;SDS011;14685;50.618;7.024;2023-08-24T02:02:47;7.38;;;3.58;;
27163;SDS011;14685;50.618;7.024;2023-08-24T02:05:14;5.63;;;3.25;;
27163;SDS011;14685;50.618;7.024;2023-08-24T02:07:41;12.32;;;3.00;;
27163;SDS011;14685;50.618;7.024;2023-08-24T02:10:08;5.35;;;3.25;;
27163;SDS011;14685;50.618;7.024;2023-08-24T02:12:35;7.53;;;3.13;;
27163;SDS011;14685;50.618;7.024;2023-08-24T02:15:03;6.97;;;3.30;;
27163;SDS011;14685;50.618;7.024;2023-08-24T02:17:32;4.15;;;3.00;;
27163;SDS011;14685;50.618;7.024;2023-08-24T02:20:00;5.88;;;3.40;;
27163;SDS011;14685;50.618;7.024;2023-08-24T02:22:28;6.40;;;3.42;;
27163;SDS011;14685;50.618;7.024;2023-08-24T02:24:56;6.55;;;3.28;;
27163;SDS011;14685;50.618;7.024;2023-08-24T02:27:24;9.10;;;3.33;;
27163;SDS011;14685;50.618;7.024;2023-08-24T02:29:53;7.10;;;3.50;;
27163;SDS011;14685;50.618;7.024;2023-08-24T02:32:20;5.32;;;3.35;;
27163;SDS011;14685;50.618;7.024;2023-08-24T02:34:48;5.95;;;3.75;;
27163;SDS011;14685;50.618;7.024;2023-08-24T02:37:16;10.07;;;3.33;;
27163;SDS011;14685;50.618;7.024;2023-08-24T02:39:43;9.68;;;3.85;;
27163;SDS011;14685;50.618;7.024;2023-08-24T02:42:10;7.45;;;3.67;;
27163;SDS011;14685;50.618;7.024;2023-08-24T02:44:37;6.00;;;3.30;;
27163;SDS011;14685;50.618;7.024;2023-08-24T02:47:04;7.25;;;3.13;;
27163;SDS011;14685;50.618;7.024;2023-08-24T02:49:31;3.17;;;2.85;;
27163;SDS011;14685;50.618;7.024;2023-08-24T02:51:58;4.60;;;3.00;;
27163;SDS011;14685;50.618;7.024;2023-08-24T02:54:25;7.85;;;3.78;;
27163;SDS011;14685;50.618;7.024;2023-08-24T02:56:53;7.45;;;3.65;;
27163;SDS011;14685;50.618;7.024;2023-08-24T02:59:20;4.97;;;3.08;;
27163;SDS011;14685;50.618;7.024;2023-08-24T03:01:49;6.53;;;3.58;;
27163;SDS011;14685;50.618;7.024;2023-08-24T03:04:18;5.93;;;3.15;;
27163;SDS011;14685;50.618;7.024;2023-08-24T03:06:46;5.20;;;3.03;;
27163;SDS011;14685;50.618;7.024;2023-08-24T03:09:13;6.22;;;3.42;;
27163;SDS011;14685;50.618;7.024;2023-08-24T03:11:40;4.75;;;2.90;;
27163;SDS011;14685;50.618;7.024;2023-08-24T03:14:07;4.28;;;3.55;;
27163;SDS011;14685;50.618;7.024;2023-08-24T03:16:34;5.50;;;3.47;;
27163;SDS011;14685;50.618;7.024;2023-08-24T03:19:03;8.25;;;3.47;;
27163;SDS011;14685;50.618;7.024;2023-08-24T03:21:30;4.55;;;3.42;;
27163;SDS011;14685;50.618;7.024;2023-08-24T03:23:59;7.47;;;3.65;;
27163;SDS011;14685;50.618;7.024;2023-08-24T03:26:25;8.50;;;3.33;;
27163;SDS011;14685;50.618;7.024;2023-08-24T03:28:53;9.70;;;3.55;;
27163;SDS011;14685;50.618;7.024;2023-08-24T03:31:20;6.05;;;3.38;;
27163;SDS011;14685;50.618;7.024;2023-08-24T03:33:47;6.40;;;3.35;;
27163;SDS011;14685;50.618;7.024;2023-08-24T03:36:15;7.10;;;3.38;;
27163;SDS011;14685;50.618;7.024;2023-08-24T03:38:41;6.25;;;3.25;;
27163;SDS011;14685;50.618;7.024;2023-08-24T03:41:08;5.28;;;3.45;;
27163;SDS011;14685;50.618;7.024;2023-08-24T03:43:37;5.93;;;3.33;;
27163;SDS011;14685;50.618;7.024;2023-08-24T03:46:04;6.28;;;3.15;;
27163;SDS011;14685;50.618;7.024;2023-08-24T03:48:32;7.50;;;3.30;;
27163;SDS011;14685;50.618;7.024;2023-08-24T03:50:59;7.00;;;3.60;;
27163;SDS011;14685;50.618;7.024;2023-08-24T03:53:28;7.03;;;3.35;;
27163;SDS011;14685;50.618;7.024;2023-08-24T03:55:55;6.35;;;3.13;;
27163;SDS011;14685;50.618;7.024;2023-08-24T03:58:22;5.32;;;2.90;;
27163;SDS011;14685;50.618;7.024;2023-08-24T04:00:50;5.70;;;2.92;;
27163;SDS011;14685;50.618;7.024;2023-08-24T04:03:17;7.53;;;3.40;;
27163;SDS011;14685;50.618;7.024;2023-08-24T04:05:44;5.57;;;2.83;;
27163;SDS011;14685;50.618;7.024;2023-08-24T04:08:11;5.63;;;3.53;;
27163;SDS011;14685;50.618;7.024;2023-08-24T04:10:38;6.03;;;3.40;;
27163;SDS011;14685;50.618;7.024;2023-08-24T04:13:06;6.32;;;3.35;;
27163;SDS011;14685;50.618;7.024;2023-08-24T04:15:33;6.28;;;3.33;;
27163;SDS011;14685;50.618;7.024;2023-08-24T04:18:00;12.45;;;3.28;;
27163;SDS011;14685;50.618;7.024;2023-08-24T04:20:27;6.13;;;3.83;;
27163;SDS011;14685;50.618;7.024;2023-08-24T04:22:55;5.07;;;3.25;;
27163;SDS011;14685;50.618;7.024;2023-08-24T04:25:23;8.45;;;3.88;;
27163;SDS011;14685;50.618;7.024;2023-08-24T04:27:50;3.67;;;3.30;;
27163;SDS011;14685;50.618;7.024;2023-08-24T04:30:17;6.60;;;3.58;;
27163;SDS011;14685;50.618;7.024;2023-08-24T04:32:44;4.65;;;3.35;;
27163;SDS011;14685;50.618;7.024;2023-08-24T04:35:11;8.63;;;3.60;;
27163;SDS011;14685;50.618;7.024;2023-08-24T04:37:38;5.97;;;3.45;;
27163;SDS011;14685;50.618;7.024;2023-08-24T04:40:07;5.07;;;3.22;;
27163;SDS011;14685;50.618;7.024;2023-08-24T04:42:34;8.10;;;3.42;;
27163;SDS011;14685;50.618;7.024;2023-08-24T04:45:03;6.28;;;3.15;;
27163;SDS011;14685;50.618;7.024;2023-08-24T04:47:30;6.82;;;3.67;;
27163;SDS011;14685;50.618;7.024;2023-08-24T04:49:57;5.45;;;3.83;;
27163;SDS011;14685;50.618;7.024;2023-08-24T04:52:23;6.07;;;3.92;;
27163;SDS011;14685;50.618;7.024;2023-08-24T04:54:50;11.30;;;4.22;;
27163;SDS011;14685;50.618;7.024;2023-08-24T04:57:17;7.05;;;3.90;;
27163;SDS011;14685;50.618;7.024;2023-08-24T04:59:45;7.35;;;3.63;;
27163;SDS011;14685;50.618;7.024;2023-08-24T05:02:12;7.90;;;4.05;;
27163;SDS011;14685;50.618;7.024;2023-08-24T05:04:39;5.30;;;3.65;;
27163;SDS011;14685;50.618;7.024;2023-08-24T05:07:07;8.15;;;3.85;;
27163;SDS011;14685;50.618;7.024;2023-08-24T05:09:34;5.88;;;3.70;;
27163;SDS011;14685;50.618;7.024;2023-08-24T05:12:01;12.00;;;3.97;;
27163;SDS011;14685;50.618;7.024;2023-08-24T05:14:31;9.27;;;3.95;;
27163;SDS011;14685;50.618;7.024;2023-08-24T05:16:58;8.63;;;3.70;;
27163;SDS011;14685;50.618;7.024;2023-08-24T05:19:26;5.50;;;3.78;;
27163;SDS011;14685;50.618;7.024;2023-08-24T05:21:55;7.88;;;3.67;;
27163;SDS011;14685;50.618;7.024;2023-08-24T05:24:22;7.45;;;3.38;;
27163;SDS011;14685;50.618;7.024;2023-08-24T05:26:49;7.35;;;3.45;;
27163;SDS011;14685;50.618;7.024;2023-08-24T05:29:16;7.03;;;3.72;;
27163;SDS011;14685;50.618;7.024;2023-08-24T05:31:43;5.88;;;3.40;;
27163;SDS011;14685;50.618;7.024;2023-08-24T05:34:11;4.47;;;3.28;;
27163;SDS011;14685;50.618;7.024;2023-08-24T05:36:40;8.15;;;3.58;;
27163;SDS011;14685;50.618;7.024;2023-08-24T05:39:07;7.90;;;3.85;;
27163;SDS011;14685;50.618;7.024;2023-08-24T05:41:35;6.18;;;3.95;;
27163;SDS011;14685;50.618;7.024;2023-08-24T05:44:04;6.70;;;4.07;;
27163;SDS011;14685;50.618;7.024;2023-08-24T05:46:33;6.28;;;4.45;;
27163;SDS011;14685;50.618;7.024;2023-08-24T05:49:00;7.55;;;3.38;;
27163;SDS011;14685;50.618;7.024;2023-08-24T05:51:27;8.82;;;3.80;;
27163;SDS011;14685;50.618;7.024;2023-08-24T05:53:54;4.55;;;3.33;;
27163;SDS011;14685;50.618;7.024;2023-08-24T05:56:23;9.00;;;3.50;;
27163;SDS011;14685;50.618;7.024;2023-08-24T05:58:50;7.60;;;3.70;;
27163;SDS011;14685;50.618;7.024;2023-08-24T06:01:18;7.65;;;3.50;;
27163;SDS011;14685;50.618;7.024;2023-08-24T06:03:45;8.15;;;4.05;;
27163;SDS011;14685;50.618;7.024;2023-08-24T06:06:13;11.25;;;3.67;;
27163;SDS011;14685;50.618;7.024;2023-08-24T06:08:42;7.90;;;4.22;;
27163;SDS011;14685;50.618;7.024;2023-08-24T06:11:09;8.45;;;4.18;;
27163;SDS011;14685;50.618;7.024;2023-08-24T06:13:36;7.07;;;3.65;;
27163;SDS011;14685;50.618;7.024;2023-08-24T06:16:05;10.70;;;4.40;;
27163;SDS011;14685;50.618;7.024;2023-08-24T06:18:32;6.95;;;4.07;;
27163;SDS011;14685;50.618;7.024;2023-08-24T06:20:59;9.45;;;4.63;;
27163;SDS011;14685;50.618;7.024;2023-08-24T06:23:27;8.00;;;4.25;;
27163;SDS011;14685;50.618;7.024;2023-08-24T06:25:54;7.13;;;4.30;;
27163;SDS011;14685;50.618;7.024;2023-08-24T06:28:21;9.45;;;3.83;;
27163;SDS011;14685;50.618;7.024;2023-08-24T06:30:49;6.65;;;4.00;;
27163;SDS011;14685;50.618;7.024;2023-08-24T06:33:18;8.13;;;4.03;;
27163;SDS011;14685;50.618;7.024;2023-08-24T06:35:46;6.75;;;3.70;;
27163;SDS011;14685;50.618;7.024;2023-08-24T06:38:15;6.13;;;4.03;;
27163;SDS011;14685;50.618;7.024;2023-08-24T06:40:42;5.97;;;4.05;;
27163;SDS011;14685;50.618;7.024;2023-08-24T06:43:09;7.75;;;4.40;;
27163;SDS011;14685;50.618;7.024;2023-08-24T06:45:37;7.22;;;4.22;;
27163;SDS011;14685;50.618;7.024;2023-08-24T06:48:05;7.50;;;4.15;;
27163;SDS011;14685;50.618;7.024;2023-08-24T06:50:33;9.93;;;4.35;;
27163;SDS011;14685;50.618;7.024;2023-08-24T06:53:03;10.75;;;5.07;;
27163;SDS011;14685;50.618;7.024;2023-08-24T06:55:30;5.93;;;4.63;;
27163;SDS011;14685;50.618;7.024;2023-08-24T06:57:57;6.25;;;4.57;;
27163;SDS011;14685;50.618;7.024;2023-08-24T07:00:24;9.75;;;4.55;;
27163;SDS011;14685;50.618;7.024;2023-08-24T07:02:52;5.32;;;4.53;;
27163;SDS011;14685;50.618;7.024;2023-08-24T07:05:19;5.75;;;4.20;;
27163;SDS011;14685;50.618;7.024;2023-08-24T07:07:47;6.05;;;3.95;;
27163;SDS011;14685;50.618;7.024;2023-08-24T07:10:16;6.43;;;4.75;;
27163;SDS011;14685;50.618;7.024;2023-08-24T07:12:44;6.75;;;4.22;;
27163;SDS011;14685;50.618;7.024;2023-08-24T07:15:12;6.93;;;4.10;;
27163;SDS011;14685;50.618;7.024;2023-08-24T07:17:39;9.73;;;3.65;;
27163;SDS011;14685;50.618;7.024;2023-08-24T07:20:07;7.05;;;3.58;;
27163;SDS011;14685;50.618;7.024;2023-08-24T07:22:40;9.73;;;4.60;;
27163;SDS011;14685;50.618;7.024;2023-08-24T07:25:07;7.25;;;3.83;;
27163;SDS011;14685;50.618;7.024;2023-08-24T07:27:34;9.30;;;3.90;;
27163;SDS011;14685;50.618;7.024;2023-08-24T07:30:02;8.77;;;3.67;;
27163;SDS011;14685;50.618;7.024;2023-08-24T07:32:53;11.48;;;3.63;;
27163;SDS011;14685;50.618;7.024;2023-08-24T07:35:20;9.15;;;3.72;;
27163;SDS011;14685;50.618;7.024;2023-08-24T07:37:51;7.25;;;3.75;;
27163;SDS011;14685;50.618;7.024;2023-08-24T07:40:18;4.13;;;3.28;;
27163;SDS011;14685;50.618;7.024;2023-08-24T07:42:46;10.90;;;3.95;;
27163;SDS011;14685;50.618;7.024;2023-08-24T07:45:15;7.60;;;3.80;;
27163;SDS011;14685;50.618;7.024;2023-08-24T07:47:43;4.68;;;3.50;;
27163;SDS011;14685;50.618;7.024;2023-08-24T07:50:10;5.97;;;3.08;;
27163;SDS011;14685;50.618;7.024;2023-08-24T07:52:38;8.82;;;3.58;;
27163;SDS011;14685;50.618;7.024;2023-08-24T07:55:06;5.53;;;3.65;;
27163;SDS011;14685;50.618;7.024;2023-08-24T07:57:34;8.35;;;3.45;;
27163;SDS011;14685;50.618;7.024;2023-08-24T08:00:03;5.35;;;3.25;;
27163;SDS011;14685;50.618;7.024;2023-08-24T08:02:35;10.07;;;3.47;;
27163;SDS011;14685;50.618;7.024;2023-08-24T08:05:04;6.68;;;3.28;;
27163;SDS011;14685;50.618;7.024;2023-08-24T08:07:34;7.35;;;3.13;;
27163;SDS011;14685;50.618;7.024;2023-08-24T08:10:01;5.95;;;3.22;;
27163;SDS011;14685;50.618;7.024;2023-08-24T08:12:28;6.93;;;3.13;;
27163;SDS011;14685;50.618;7.024;2023-08-24T08:14:58;5.25;;;2.72;;
27163;SDS011;14685;50.618;7.024;2023-08-24T08:17:26;9.45;;;3.10;;
27163;SDS011;14685;50.618;7.024;2023-08-24T08:19:57;7.63;;;3.13;;
27163;SDS011;14685;50.618;7.024;2023-08-24T08:22:24;5.63;;;2.45;;
27163;SDS011;14685;50.618;7.024;2023-08-24T08:24:52;4.22;;;2.90;;
27163;SDS011;14685;50.618;7.024;2023-08-24T08:27:20;6.38;;;3.60;;
27163;SDS011;14685;50.618;7.024;2023-08-24T08:29:49;6.72;;;3.42;;
27163;SDS011;14685;50.618;7.024;2023-08-24T08:32:18;3.85;;;3.20;;
27163;SDS011;14685;50.618;7.024;2023-08-24T08:34:45;7.75;;;3.47;;
27163;SDS011;14685;50.618;7.024;2023-08-24T08:37:12;8.02;;;3.30;;
27163;SDS011;14685;50.618;7.024;2023-08-24T08:39:39;4.97;;;3.13;;
27163;SDS011;14685;50.618;7.024;2023-08-24T08:42:10;8.57;;;3.38;;
27163;SDS011;14685;50.618;7.024;2023-08-24T08:44:38;7.97;;;3.65;;
27163;SDS011;14685;50.618;7.024;2023-08-24T08:47:10;9.63;;;3.53;;
27163;SDS011;14685;50.618;7.024;2023-08-24T08:49:42;5.32;;;2.63;;
27163;SDS011;14685;50.618;7.024;2023-08-24T08:52:10;12.43;;;3.78;;
27163;SDS011;14685;50.618;7.024;2023-08-24T08:54:37;7.90;;;3.13;;
27163;SDS011;14685;50.618;7.024;2023-08-24T08:57:04;6.25;;;3.15;;
27163;SDS011;14685;50.618;7.024;2023-08-24T08:59:33;9.07;;;3.40;;
27163;SDS011;14685;50.618;7.024;2023-08-24T09:02:03;8.85;;;3.33;;
27163;SDS011;14685;50.618;7.024;2023-08-24T09:04:32;5.10;;;2.83;;
27163;SDS011;14685;50.618;7.024;2023-08-24T09:07:05;6.40;;;2.90;;
27163;SDS011;14685;50.618;7.024;2023-08-24T09:09:37;8.48;;;3.13;;
27163;SDS011;14685;50.618;7.024;2023-08-24T09:12:07;9.23;;;3.22;;
27163;SDS011;14685;50.618;7.024;2023-08-24T09:14:34;9.75;;;3.10;;
27163;SDS011;14685;50.618;7.024;2023-08-24T09:17:02;6.57;;;2.88;;
27163;SDS011;14685;50.618;7.024;2023-08-24T09:19:32;7.60;;;3.25;;
27163;SDS011;14685;50.618;7.024;2023-08-24T09:22:05;8.55;;;3.13;;
27163;SDS011;14685;50.618;7.024;2023-08-24T09:24:34;5.32;;;2.92;;
27163;SDS011;14685;50.618;7.024;2023-08-24T09:27:14;9.13;;;2.67;;
27163;SDS011;14685;50.618;7.024;2023-08-24T09:29:47;5.22;;;2.83;;
27163;SDS011;14685;50.618;7.024;2023-08-24T09:32:22;5.10;;;3.08;;
27163;SDS011;14685;50.618;7.024;2023-08-24T09:34:50;12.52;;;4.93;;
27163;SDS011;14685;50.618;7.024;2023-08-24T09:37:20;7.55;;;2.63;;
27163;SDS011;14685;50.618;7.024;2023-08-24T09:39:48;5.30;;;2.92;;
27163;SDS011;14685;50.618;7.024;2023-08-24T09:42:15;5.75;;;3.08;;
27163;SDS011;14685;50.618;7.024;2023-08-24T09:44:54;6.10;;;2.80;;
27163;SDS011;14685;50.618;7.024;2023-08-24T09:47:31;7.47;;;2.63;;
27163;SDS011;14685;50.618;7.024;2023-08-24T09:49:59;14.95;;;2.80;;
27163;SDS011;14685;50.618;7.024;2023-08-24T09:52:33;4.70;;;2.95;;
27163;SDS011;14685;50.618;7.024;2023-08-24T09:55:02;4.25;;;2.80;;
27163;SDS011;14685;50.618;7.024;2023-08-24T09:57:37;5.47;;;3.25;;
27163;SDS011;14685;50.618;7.024;2023-08-24T10:00:07;5.53;;;2.90;;
27163;SDS011;14685;50.618;7.024;2023-08-24T10:02:50;5.75;;;2.75;;
27163;SDS011;14685;50.618;7.024;2023-08-24T10:05:23;3.78;;;2.58;;
27163;SDS011;14685;50.618;7.024;2023-08-24T10:07:54;5.13;;;2.75;;
27163;SDS011;14685;50.618;7.024;2023-08-24T10:10:25;3.70;;;2.25;;
27163;SDS011;14685;50.618;7.024;2023-08-24T10:12:56;5.55;;;2.83;;
27163;SDS011;14685;50.618;7.024;2023-08-24T10:15:27;5.78;;;2.90;;
27163;SDS011;14685;50.618;7.024;2023-08-24T10:17:54;4.03;;;2.50;;
27163;SDS011;14685;50.618;7.024;2023-08-24T10:20:22;6.10;;;2.58;;
27163;SDS011;14685;50.618;7.024;2023-08-24T10:22:52;7.13;;;2.88;;
27163;SDS011;14685;50.618;7.024;2023-08-24T10:25:20;5.10;;;3.10;;
27163;SDS011;14685;50.618;7.024;2023-08-24T10:27:49;7.88;;;2.95;;
27163;SDS011;14685;50.618;7.024;2023-08-24T10:30:18;5.18;;;3.03;;
27163;SDS011;14685;50.618;7.024;2023-08-24T10:32:50;4.68;;;2.80;;
27163;SDS011;14685;50.618;7.024;2023-08-24T10:35:21;6.13;;;3.10;;
27163;SDS011;14685;50.618;7.024;2023-08-24T10:37:51;4.95;;;2.70;;
27163;SDS011;14685;50.618;7.024;2023-08-24T10:40:32;6.88;;;2.85;;
27163;SDS011;14685;50.618;7.024;2023-08-24T10:43:04;6.30;;;2.47;;
27163;SDS011;14685;50.618;7.024;2023-08-24T10:48:28;2.58;;;2.38;;
27163;SDS011;14685;50.618;7.024;2023-08-24T10:54:01;4.72;;;2.60;;
27163;SDS011;14685;50.618;7.024;2023-08-24T10:56:38;9.55;;;3.17;;
27163;SDS011;14685;50.618;7.024;2023-08-24T10:59:10;7.85;;;2.70;;
27163;SDS011;14685;50.618;7.024;2023-08-24T11:01:41;10.68;;;2.75;;
27163;SDS011;14685;50.618;7.024;2023-08-24T11:04:30;6.75;;;3.15;;
27163;SDS011;14685;50.618;7.024;2023-08-24T11:06:58;3.85;;;3.10;;
27163;SDS011;14685;50.618;7.024;2023-08-24T11:09:46;4.60;;;2.88;;
27163;SDS011;14685;50.618;7.024;2023-08-24T11:12:14;4.57;;;2.88;;
27163;SDS011;14685;50.618;7.024;2023-08-24T11:14:51;4.55;;;2.70;;
27163;SDS011;14685;50.618;7.024;2023-08-24T11:17:21;3.70;;;2.78;;
27163;SDS011;14685;50.618;7.024;2023-08-24T11:19:52;6.25;;;2.58;;
27163;SDS011;14685;50.618;7.024;2023-08-24T11:22:23;4.97;;;2.80;;
27163;SDS011;14685;50.618;7.024;2023-08-24T11:24:52;6.05;;;3.17;;
27163;SDS011;14685;50.618;7.024;2023-08-24T11:27:20;7.03;;;3.10;;
27163;SDS011;14685;50.618;7.024;2023-08-24T11:29:57;4.80;;;2.45;;
27163;SDS011;14685;50.618;7.024;2023-08-24T11:32:26;8.43;;;3.03;;
27163;SDS011;14685;50.618;7.024;2023-08-24T11:34:54;5.65;;;2.70;;
27163;SDS011;14685;50.618;7.024;2023-08-24T11:37:21;5.43;;;3.00;;
27163;SDS011;14685;50.618;7.024;2023-08-24T11:39:48;5.20;;;3.10;;
27163;SDS011;14685;50.618;7.024;2023-08-24T11:42:18;7.20;;;3.13;;
27163;SDS011;14685;50.618;7.024;2023-08-24T11:44:46;7.47;;;2.78;;
27163;SDS011;14685;50.618;7.024;2023-08-24T11:47:14;4.20;;;3.05;;
27163;SDS011;14685;50.618;7.024;2023-08-24T11:49:43;3.45;;;2.80;;
27163;SDS011;14685;50.618;7.024;2023-08-24T11:52:10;5.18;;;3.10;;
27163;SDS011;14685;50.618;7.024;2023-08-24T11:54:37;3.08;;;2.55;;
27163;SDS011;14685;50.618;7.024;2023-08-24T11:57:08;4.45;;;2.72;;
27163;SDS011;14685;50.618;7.024;2023-08-24T11:59:36;3.95;;;3.17;;
27163;SDS011;14685;50.618;7.024;2023-08-24T12:02:04;4.47;;;2.80;;
27163;SDS011;14685;50.618;7.024;2023-08-24T12:04:39;4.15;;;2.67;;
27163;SDS011;14685;50.618;7.024;2023-08-24T12:07:11;5.15;;;2.63;;
27163;SDS011;14685;50.618;7.024;2023-08-24T12:09:39;7.60;;;2.90;;
27163;SDS011;14685;50.618;7.024;2023-08-24T12:12:14;4.97;;;2.55;;
27163;SDS011;14685;50.618;7.024;2023-08-24T12:14:42;5.05;;;2.95;;
27163;SDS011;14685;50.618;7.024;2023-08-24T12:17:10;6.13;;;3.03;;
27163;SDS011;14685;50.618;7.024;2023-08-24T12:19:42;6.40;;;3.50;;
27163;SDS011;14685;50.618;7.024;2023-08-24T12:22:14;5.95;;;2.78;;
27163;SDS011;14685;50.618;7.024;2023-08-24T12:24:46;7.32;;;2.78;;
27163;SDS011;14685;50.618;7.024;2023-08-24T12:27:20;12.40;;;4.72;;
27163;SDS011;14685;50.618;7.024;2023-08-24T12:29:50;5.90;;;2.90;;
27163;SDS011;14685;50.618;7.024;2023-08-24T12:32:17;5.78;;;3.25;;
27163;SDS011;14685;50.618;7.024;2023-08-24T12:34:52;5.22;;;2.92;;
27163;SDS011;14685;50.618;7.024;2023-08-24T12:37:21;6.40;;;2.80;;
27163;SDS011;14685;50.618;7.024;2023-08-24T12:39:51;7.80;;;3.33;;
27163;SDS011;14685;50.618;7.024;2023-08-24T12:42:20;5.78;;;3.10;;
27163;SDS011;14685;50.618;7.024;2023-08-24T12:44:47;3.47;;;2.45;;
27163;SDS011;14685;50.618;7.024;2023-08-24T12:47:17;6.15;;;2.97;;
27163;SDS011;14685;50.618;7.024;2023-08-24T12:49:44;10.25;;;3.17;;
27163;SDS011;14685;50.618;7.024;2023-08-24T12:52:12;5.95;;;2.97;;
27163;SDS011;14685;50.618;7.024;2023-08-24T12:54:39;8.75;;;3.63;;
27163;SDS011;14685;50.618;7.024;2023-08-24T12:57:08;9.65;;;3.35;;
27163;SDS011;14685;50.618;7.024;2023-08-24T12:59:35;4.63;;;2.83;;
27163;SDS011;14685;50.618;7.024;2023-08-24T13:02:03;5.13;;;3.10;;
27163;SDS011;14685;50.618;7.024;2023-08-24T13:04:32;8.25;;;3.55;;
27163;SDS011;14685;50.618;7.024;2023-08-24T13:07:00;5.68;;;3.30;;
27163;SDS011;14685;50.618;7.024;2023-08-24T13:09:26;9.07;;;3.67;;
27163;SDS011;14685;50.618;7.024;2023-08-24T13:11:53;8.13;;;2.80;;
27163;SDS011;14685;50.618;7.024;2023-08-24T13:14:21;4.75;;;3.47;;
27163;SDS011;14685;50.618;7.024;2023-08-24T13:16:50;6.25;;;3.30;;
27163;SDS011;14685;50.618;7.024;2023-08-24T13:19:16;4.90;;;3.30;;
27163;SDS011;14685;50.618;7.024;2023-08-24T13:21:44;8.73;;;3.60;;
27163;SDS011;14685;50.618;7.024;2023-08-24T13:24:11;8.60;;;3.67;;
27163;SDS011;14685;50.618;7.024;2023-08-24T13:26:39;11.82;;;4.20;;
27163;SDS011;14685;50.618;7.024;2023-08-24T13:29:07;6.95;;;3.58;;
27163;SDS011;14685;50.618;7.024;2023-08-24T13:31:34;7.85;;;3.17;;
27163;SDS011;14685;50.618;7.024;2023-08-24T13:34:02;6.35;;;3.55;;
27163;SDS011;14685;50.618;7.024;2023-08-24T13:36:33;9.25;;;3.35;;
27163;SDS011;14685;50.618;7.024;2023-08-24T13:39:01;5.90;;;3.47;;
27163;SDS011;14685;50.618;7.024;2023-08-24T13:41:31;7.20;;;3.40;;
27163;SDS011;14685;50.618;7.024;2023-08-24T13:43:58;7.50;;;2.97;;
27163;SDS011;14685;50.618;7.024;2023-08-24T13:46:24;6.40;;;3.03;;
27163;SDS011;14685;50.618;7.024;2023-08-24T13:48:53;6.40;;;3.38;;
27163;SDS011;14685;50.618;7.024;2023-08-24T13:51:20;7.45;;;3.10;;
27163;SDS011;14685;50.618;7.024;2023-08-24T13:53:47;7.28;;;3.15;;
27163;SDS011;14685;50.618;7.024;2023-08-24T13:56:14;8.70;;;3.83;;
27163;SDS011;14685;50.618;7.024;2023-08-24T13:58:42;9.55;;;3.17;;
27163;SDS011;14685;50.618;7.024;2023-08-24T14:01:10;4.90;;;2.67;;
27163;SDS011;14685;50.618;7.024;2023-08-24T14:03:39;5.80;;;2.72;;
27163;SDS011;14685;50.618;7.024;2023-08-24T14:06:09;4.90;;;2.92;;
27163;SDS011;14685;50.618;7.024;2023-08-24T14:08:40;5.88;;;2.75;;
27163;SDS011;14685;50.618;7.024;2023-08-24T14:11:07;8.65;;;2.90;;
27163;SDS011;14685;50.618;7.024;2023-08-24T14:13:33;5.63;;;2.75;;
27163;SDS011;14685;50.618;7.024;2023-08-24T14:16:00;5.80;;;2.90;;
27163;SDS011;14685;50.618;7.024;2023-08-24T14:18:27;5.05;;;2.80;;
27163;SDS011;14685;50.618;7.024;2023-08-24T14:20:54;5.93;;;2.70;;
27163;SDS011;14685;50.618;7.024;2023-08-24T14:23:21;6.80;;;2.83;;
27163;SDS011;14685;50.618;7.024;2023-08-24T14:25:48;2.92;;;2.28;;
27163;SDS011;14685;50.618;7.024;2023-08-24T14:28:18;4.38;;;2.67;;
27163;SDS011;14685;50.618;7.024;2023-08-24T14:30:51;6.35;;;2.50;;
27163;SDS011;14685;50.618;7.024;2023-08-24T14:33:18;6.40;;;2.72;;
27163;SDS011;14685;50.618;7.024;2023-08-24T14:35:53;4.63;;;2.83;;
27163;SDS011;14685;50.618;7.024;2023-08-24T14:40:47;9.57;;;3.10;;
27163;SDS011;14685;50.618;7.024;2023-08-24T14:43:15;4.07;;;2.50;;
27163;SDS011;14685;50.618;7.024;2023-08-24T14:45:42;6.28;;;2.80;;
27163;SDS011;14685;50.618;7.024;2023-08-24T14:48:09;4.45;;;2.75;;
27163;SDS011;14685;50.618;7.024;2023-08-24T14:50:40;8.77;;;2.92;;
27163;SDS011;14685;50.618;7.024;2023-08-24T14:53:06;5.38;;;2.75;;
27163;SDS011;14685;50.618;7.024;2023-08-24T14:55:33;5.85;;;2.70;;
27163;SDS011;14685;50.618;7.024;2023-08-24T14:58:03;4.70;;;2.60;;
27163;SDS011;14685;50.618;7.024;2023-08-24T15:00:32;8.73;;;3.28;;
27163;SDS011;14685;50.618;7.024;2023-08-24T15:02:59;5.82;;;3.10;;
27163;SDS011;14685;50.618;7.024;2023-08-24T15:05:26;10.23;;;2.88;;
27163;SDS011;14685;50.618;7.024;2023-08-24T15:07:53;10.82;;;3.08;;